Time;durP1;ratioP1;P1;durP2;ratioP2;P2;SDS_P1;SDS_P2;PMS_P1;PMS_P2;Temp;Humidity;BMP_temperature;BMP_pressure;BME280_temperature;BME280_humidity;BME280_pressure;Samples;Min_cycle;Max_cycle;Signal;HPM_P1;HPM_P2
2023/06/30 00:00:28;;;;;;;14.77;7.53;;;;;;;;;;5014071;28;20057;-81
2023/06/30 00:02:55;;;;;;;12.73;8.85;;;;;;;;;;5027971;28;20049;-83
2023/06/30 00:05:20;;;;;;;14.82;8.18;;;;;;;;;;5015175;28;20033;-84
2023/06/30 00:07:46;;;;;;;14.63;9.40;;;;;;;;;;5015568;28;20408;-84
2023/06/30 00:10:12;;;;;;;16.25;8.40;;;;;;;;;;5035891;28;20031;-82
2023/06/30 00:12:37;;;;;;;14.48;8.25;;;;;;;;;;5034537;28;20446;-84
2023/06/30 00:15:03;;;;;;;14.82;9.05;;;;;;;;;;5035628;28;20032;-84
2023/06/30 00:17:29;;;;;;;14.25;8.35;;;;;;;;;;5032517;28;20400;-83
2023/06/30 00:19:57;;;;;;;14.80;8.82;;;;;;;;;;5034413;28;20036;-86
2023/06/30 00:22:23;;;;;;;18.08;9.25;;;;;;;;;;5033940;28;20038;-84
2023/06/30 00:24:58;;;;;;;14.60;8.50;;;;;;;;;;5017730;28;20488;-84
2023/06/30 00:27:24;;;;;;;13.10;8.13;;;;;;;;;;5041531;28;20045;-84
2023/06/30 00:29:50;;;;;;;17.33;8.98;;;;;;;;;;5026339;28;20033;-83
2023/06/30 00:32:15;;;;;;;14.40;8.93;;;;;;;;;;5041638;28;20048;-83
2023/06/30 00:34:41;;;;;;;16.08;8.75;;;;;;;;;;5032099;28;20032;-83
2023/06/30 00:37:07;;;;;;;18.20;9.75;;;;;;;;;;5032682;28;20057;-85
2023/06/30 00:39:32;;;;;;;15.90;8.43;;;;;;;;;;5031136;28;20037;-84
2023/06/30 00:42:00;;;;;;;15.63;9.20;;;;;;;;;;5030338;28;20503;-84
2023/06/30 00:44:25;;;;;;;16.08;9.88;;;;;;;;;;5031793;28;20103;-84
2023/06/30 00:46:51;;;;;;;16.67;10.02;;;;;;;;;;5014557;28;20037;-84
2023/06/30 00:49:17;;;;;;;16.92;9.90;;;;;;;;;;5030911;28;20072;-84
2023/06/30 00:51:43;;;;;;;21.73;10.20;;;;;;;;;;5030912;28;20033;-84
2023/06/30 00:54:08;;;;;;;14.13;9.55;;;;;;;;;;5015020;28;20047;-84
2023/06/30 00:56:34;;;;;;;15.82;9.20;;;;;;;;;;5015712;28;20025;-84
2023/06/30 00:58:59;;;;;;;17.08;10.45;;;;;;;;;;5024495;28;20030;-83
2023/06/30 01:01:36;;;;;;;16.58;9.75;;;;;;;;;;5038542;28;20101;-84
2023/06/30 01:04:09;;;;;;;18.75;10.25;;;;;;;;;;5052458;28;20034;-83
2023/06/30 01:06:40;;;;;;;17.58;9.75;;;;;;;;;;5052836;28;20041;-83
2023/06/30 01:09:13;;;;;;;15.80;10.40;;;;;;;;;;5051701;28;20035;-84
2023/06/30 01:11:39;;;;;;;15.95;9.68;;;;;;;;;;5016775;28;20037;-83
2023/06/30 01:14:06;;;;;;;17.67;10.38;;;;;;;;;;5033329;28;20052;-84
2023/06/30 01:16:33;;;;;;;19.70;10.98;;;;;;;;;;5035823;28;20021;-84
2023/06/30 01:19:01;;;;;;;17.50;10.65;;;;;;;;;;5034480;28;20029;-83
2023/06/30 01:21:28;;;;;;;16.20;10.10;;;;;;;;;;5017909;28;20029;-83
2023/06/30 01:23:58;;;;;;;16.90;10.48;;;;;;;;;;5034962;28;20045;-85
2023/06/30 01:26:24;;;;;;;16.55;10.50;;;;;;;;;;5018704;28;20033;-83
2023/06/30 01:28:52;;;;;;;16.65;10.15;;;;;;;;;;5036235;28;20030;-84
2023/06/30 01:31:19;;;;;;;15.80;10.52;;;;;;;;;;5034840;28;20113;-84
2023/06/30 01:33:45;;;;;;;15.52;10.48;;;;;;;;;;5034643;28;20500;-84
2023/06/30 01:36:10;;;;;;;17.55;10.18;;;;;;;;;;5035719;28;20060;-84
2023/06/30 01:38:36;;;;;;;16.67;10.18;;;;;;;;;;5017391;28;20037;-84
2023/06/30 01:41:02;;;;;;;15.52;10.35;;;;;;;;;;5033774;28;20040;-84
2023/06/30 01:43:28;;;;;;;16.25;10.38;;;;;;;;;;5017411;28;20501;-84
2023/06/30 01:45:54;;;;;;;14.55;9.30;;;;;;;;;;5017554;28;20052;-85
2023/06/30 01:48:20;;;;;;;15.10;9.68;;;;;;;;;;5035185;28;20080;-83
2023/06/30 01:50:45;;;;;;;14.98;9.55;;;;;;;;;;5033609;28;20025;-84
2023/06/30 01:53:11;;;;;;;15.35;9.38;;;;;;;;;;5034890;28;20053;-84
2023/06/30 01:55:38;;;;;;;15.82;8.93;;;;;;;;;;5034898;28;20386;-84
2023/06/30 01:58:03;;;;;;;15.25;9.07;;;;;;;;;;5033626;28;20075;-84
2023/06/30 02:00:29;;;;;;;17.63;10.43;;;;;;;;;;5033190;28;20488;-85
2023/06/30 02:02:54;;;;;;;17.33;10.02;;;;;;;;;;5033768;28;20029;-84
2023/06/30 02:05:20;;;;;;;14.32;9.32;;;;;;;;;;5033879;28;20025;-84
2023/06/30 02:07:46;;;;;;;15.10;9.85;;;;;;;;;;5001663;28;20029;-84
2023/06/30 02:10:12;;;;;;;14.57;9.32;;;;;;;;;;5034502;28;20499;-84
2023/06/30 02:12:37;;;;;;;16.73;9.27;;;;;;;;;;5034149;28;20040;-85
2023/06/30 02:15:03;;;;;;;14.75;8.80;;;;;;;;;;5034616;28;20026;-83
2023/06/30 02:17:33;;;;;;;17.17;9.38;;;;;;;;;;5035597;28;20029;-86
2023/06/30 02:20:03;;;;;;;17.63;9.98;;;;;;;;;;5017953;28;20057;-84
2023/06/30 02:22:29;;;;;;;17.73;8.85;;;;;;;;;;5033388;28;20053;-85
2023/06/30 02:24:56;;;;;;;16.92;9.07;;;;;;;;;;5016127;28;20401;-84
2023/06/30 02:27:23;;;;;;;13.85;8.05;;;;;;;;;;5034090;28;20075;-85
2023/06/30 02:29:49;;;;;;;15.90;8.93;;;;;;;;;;5020761;28;20026;-83
2023/06/30 02:32:14;;;;;;;14.00;8.73;;;;;;;;;;5035520;28;20025;-84
2023/06/30 02:34:40;;;;;;;17.63;9.05;;;;;;;;;;5034609;28;20481;-83
2023/06/30 02:37:05;;;;;;;15.00;8.35;;;;;;;;;;5035690;28;20026;-84
2023/06/30 02:39:31;;;;;;;13.45;8.40;;;;;;;;;;5035957;28;20034;-83
2023/06/30 02:41:56;;;;;;;12.35;7.50;;;;;;;;;;5017911;28;20049;-84
2023/06/30 02:44:22;;;;;;;13.50;7.82;;;;;;;;;;5018359;28;20042;-84
2023/06/30 02:46:48;;;;;;;14.32;8.07;;;;;;;;;;5017209;28;20029;-82
2023/06/30 02:49:13;;;;;;;12.90;8.07;;;;;;;;;;5033744;28;20083;-83
2023/06/30 02:51:39;;;;;;;13.25;7.45;;;;;;;;;;5017442;28;20035;-84
2023/06/30 02:54:04;;;;;;;12.68;7.38;;;;;;;;;;5003024;28;20107;-84
2023/06/30 02:56:30;;;;;;;11.73;7.43;;;;;;;;;;5019589;28;20109;-82
2023/06/30 02:58:57;;;;;;;13.90;7.25;;;;;;;;;;5002441;28;20033;-84
2023/06/30 03:01:24;;;;;;;12.48;6.72;;;;;;;;;;5033875;28;20096;-83
2023/06/30 03:03:52;;;;;;;11.52;6.70;;;;;;;;;;5034334;28;20025;-84
2023/06/30 03:06:17;;;;;;;13.15;6.85;;;;;;;;;;5017738;28;20045;-84
2023/06/30 03:08:43;;;;;;;12.48;7.32;;;;;;;;;;5033750;28;20052;-85
2023/06/30 03:11:10;;;;;;;12.85;7.30;;;;;;;;;;5016479;28;20037;-85
2023/06/30 03:13:36;;;;;;;15.93;7.78;;;;;;;;;;5033384;28;20148;-84
2023/06/30 03:16:02;;;;;;;13.80;7.40;;;;;;;;;;5033450;28;20033;-84
2023/06/30 03:18:28;;;;;;;12.32;6.75;;;;;;;;;;5033239;28;20032;-84
2023/06/30 03:20:53;;;;;;;11.65;7.20;;;;;;;;;;5016293;28;20029;-85
2023/06/30 03:23:19;;;;;;;12.30;7.18;;;;;;;;;;5017474;28;20033;-84
2023/06/30 03:25:45;;;;;;;10.93;6.93;;;;;;;;;;5034062;28;20388;-84
2023/06/30 03:28:11;;;;;;;13.90;7.18;;;;;;;;;;5033997;28;20030;-83
2023/06/30 03:30:39;;;;;;;12.07;6.75;;;;;;;;;;5017088;28;20109;-84
2023/06/30 03:33:05;;;;;;;;;;;;;;;;;;5035852;28;20071;-83
2023/06/30 03:35:30;;;;;;;12.32;6.63;;;;;;;;;;5034826;28;19909;-84
2023/06/30 03:37:56;;;;;;;16.40;7.72;;;;;;;;;;5018914;28;20488;-83
2023/06/30 03:40:22;;;;;;;13.10;7.35;;;;;;;;;;5040898;28;20109;-82
2023/06/30 03:42:48;;;;;;;14.75;7.32;;;;;;;;;;5048156;28;20048;-83
2023/06/30 03:45:13;;;;;;;13.95;7.57;;;;;;;;;;5047985;28;20059;-83
2023/06/30 03:47:39;;;;;;;15.73;7.47;;;;;;;;;;5049822;28;20336;-81
2023/06/30 03:50:05;;;;;;;13.30;6.75;;;;;;;;;;5047360;28;20021;-83
2023/06/30 03:52:31;;;;;;;12.68;6.90;;;;;;;;;;5048244;28;20042;-82
2023/06/30 03:54:56;;;;;;;11.48;7.05;;;;;;;;;;5009722;28;20039;-81
2023/06/30 03:57:22;;;;;;;13.00;6.93;;;;;;;;;;5023500;28;20037;-82
2023/06/30 03:59:47;;;;;;;11.05;7.10;;;;;;;;;;5024871;28;20026;-83
2023/06/30 04:02:13;;;;;;;12.38;6.47;;;;;;;;;;5039866;28;20037;-85
2023/06/30 04:04:38;;;;;;;11.98;6.45;;;;;;;;;;5043121;28;20025;-85
2023/06/30 04:07:04;;;;;;;12.07;6.70;;;;;;;;;;5043041;28;20079;-83
2023/06/30 04:09:30;;;;;;;11.80;6.55;;;;;;;;;;5007750;28;20053;-85
2023/06/30 04:11:56;;;;;;;10.45;6.05;;;;;;;;;;5035505;28;20049;-84
2023/06/30 04:14:21;;;;;;;12.20;6.05;;;;;;;;;;5033867;28;20389;-84
2023/06/30 04:16:47;;;;;;;11.85;6.43;;;;;;;;;;5033633;28;20563;-83
2023/06/30 04:19:12;;;;;;;17.52;7.75;;;;;;;;;;5031927;28;20049;-86
2023/06/30 04:21:38;;;;;;;13.35;6.85;;;;;;;;;;5031257;28;20392;-84
2023/06/30 04:24:03;;;;;;;10.77;6.70;;;;;;;;;;5032410;28;20028;-83
2023/06/30 04:26:32;;;;;;;10.07;6.45;;;;;;;;;;5031222;28;20488;-84
2023/06/30 04:28:57;;;;;;;16.88;8.43;;;;;;;;;;5031117;28;20033;-85
2023/06/30 04:31:23;;;;;;;13.50;7.05;;;;;;;;;;5014513;28;20036;-84
2023/06/30 04:33:49;;;;;;;13.20;7.35;;;;;;;;;;5031375;28;20080;-84
2023/06/30 04:36:17;;;;;;;12.05;7.53;;;;;;;;;;5031197;28;20036;-82
2023/06/30 04:38:44;;;;;;;12.80;7.13;;;;;;;;;;5032090;28;20036;-84
2023/06/30 04:41:10;;;;;;;12.32;6.75;;;;;;;;;;5031901;28;20064;-84
2023/06/30 04:43:35;;;;;;;13.40;7.70;;;;;;;;;;5016816;28;20419;-84
2023/06/30 04:46:01;;;;;;;12.68;6.85;;;;;;;;;;5016105;28;20164;-83
2023/06/30 04:48:26;;;;;;;22.65;9.80;;;;;;;;;;5034085;28;20036;-85
2023/06/30 04:50:54;;;;;;;13.02;8.60;;;;;;;;;;5036047;28;20029;-83
2023/06/30 04:53:20;;;;;;;15.80;8.70;;;;;;;;;;5002881;28;20511;-84
2023/06/30 04:55:46;;;;;;;13.25;8.48;;;;;;;;;;5035924;28;20025;-84
2023/06/30 04:58:11;;;;;;;16.75;8.75;;;;;;;;;;5035644;28;20496;-83
2023/06/30 05:00:37;;;;;;;13.95;7.85;;;;;;;;;;5036433;28;20144;-81
2023/06/30 05:03:02;;;;;;;17.20;8.80;;;;;;;;;;5036328;28;20025;-84
2023/06/30 05:05:28;;;;;;;12.35;8.02;;;;;;;;;;5036080;28;20136;-82
2023/06/30 05:07:53;;;;;;;12.85;8.00;;;;;;;;;;5019296;28;20049;-83
2023/06/30 05:10:19;;;;;;;14.50;8.10;;;;;;;;;;5036027;28;20104;-83
2023/06/30 05:12:44;;;;;;;15.52;8.00;;;;;;;;;;5019911;28;20035;-84
2023/06/30 05:15:10;;;;;;;15.95;8.18;;;;;;;;;;5038415;28;20052;-83
2023/06/30 05:17:36;;;;;;;14.68;7.90;;;;;;;;;;5037206;28;20116;-82
2023/06/30 05:20:07;;;;;;;20.33;8.13;;;;;;;;;;5023546;28;20034;-83
2023/06/30 05:22:33;;;;;;;14.55;8.07;;;;;;;;;;5040469;28;20025;-82
2023/06/30 05:24:59;;;;;;;15.48;8.45;;;;;;;;;;5041509;28;20396;-83
2023/06/30 05:27:26;;;;;;;15.20;8.03;;;;;;;;;;5025303;28;20029;-83
2023/06/30 05:29:52;;;;;;;14.63;8.05;;;;;;;;;;5021687;28;20121;-84
2023/06/30 05:32:18;;;;;;;17.20;8.90;;;;;;;;;;5003928;28;20026;-84
2023/06/30 05:34:43;;;;;;;17.25;7.30;;;;;;;;;;5035432;28;20037;-84
2023/06/30 05:37:09;;;;;;;13.95;6.90;;;;;;;;;;5018841;28;20044;-84
2023/06/30 05:39:35;;;;;;;14.07;7.88;;;;;;;;;;5035085;28;20029;-84
2023/06/30 05:42:01;;;;;;;13.73;8.55;;;;;;;;;;5002023;28;20030;-85
2023/06/30 05:44:26;;;;;;;13.70;8.30;;;;;;;;;;5017838;28;20021;-84
2023/06/30 05:46:52;;;;;;;16.25;8.35;;;;;;;;;;5018688;28;20041;-84
2023/06/30 05:49:17;;;;;;;13.55;7.93;;;;;;;;;;5018891;28;20481;-84
2023/06/30 05:51:43;;;;;;;16.45;9.32;;;;;;;;;;5035974;28;20033;-84
2023/06/30 05:54:10;;;;;;;16.85;9.25;;;;;;;;;;5036110;28;20087;-85
2023/06/30 05:56:35;;;;;;;14.85;9.85;;;;;;;;;;5035913;28;20026;-84
2023/06/30 05:59:01;;;;;;;14.18;8.38;;;;;;;;;;5037519;28;20531;-85
2023/06/30 06:01:27;;;;;;;13.80;7.82;;;;;;;;;;5045094;22;20069;-78
2023/06/30 06:03:52;;;;;;;13.73;8.57;;;;;;;;;;5033753;28;20044;-78
2023/06/30 06:06:18;;;;;;;15.82;9.82;;;;;;;;;;5033378;28;20042;-79
2023/06/30 06:08:46;;;;;;;16.83;8.20;;;;;;;;;;5033319;28;20100;-79
2023/06/30 06:11:12;;;;;;;13.82;7.68;;;;;;;;;;5034784;28;20037;-78
2023/06/30 06:13:38;;;;;;;15.63;8.18;;;;;;;;;;5033888;28;20029;-78
2023/06/30 06:16:04;;;;;;;13.45;8.18;;;;;;;;;;5034180;28;20108;-79
2023/06/30 06:18:30;;;;;;;13.35;7.90;;;;;;;;;;5035811;28;20029;-78
2023/06/30 06:20:56;;;;;;;14.88;8.70;;;;;;;;;;5039849;28;20039;-78
2023/06/30 06:23:21;;;;;;;12.05;7.75;;;;;;;;;;5040120;28;20109;-77
2023/06/30 06:25:47;;;;;;;13.52;8.32;;;;;;;;;;5040083;28;20132;-77
2023/06/30 06:28:13;;;;;;;14.80;8.30;;;;;;;;;;5040549;28;20532;-79
2023/06/30 06:30:39;;;;;;;13.85;8.85;;;;;;;;;;5035909;28;20060;-78
2023/06/30 06:33:04;;;;;;;18.30;8.98;;;;;;;;;;5036625;28;20064;-79
2023/06/30 06:35:30;;;;;;;13.38;7.55;;;;;;;;;;5033158;28;20112;-77
2023/06/30 06:37:55;;;;;;;13.73;8.40;;;;;;;;;;5033540;28;20109;-78
2023/06/30 06:40:21;;;;;;;22.02;8.77;;;;;;;;;;5016115;28;20037;-78
2023/06/30 06:42:47;;;;;;;19.90;9.68;;;;;;;;;;5032680;28;20130;-79
2023/06/30 06:45:12;;;;;;;14.65;9.55;;;;;;;;;;5033952;28;20032;-79
2023/06/30 06:47:56;;;;;;;13.10;7.95;;;;;;;;;;5032467;28;20059;-78
2023/06/30 06:50:22;;;;;;;17.15;9.25;;;;;;;;;;5032521;28;20036;-77
2023/06/30 06:52:47;;;;;;;14.35;8.38;;;;;;;;;;5033428;28;20029;-78
2023/06/30 06:55:13;;;;;;;13.88;8.90;;;;;;;;;;5016823;28;20036;-77
2023/06/30 06:57:39;;;;;;;13.60;9.00;;;;;;;;;;5033478;28;20064;-79
2023/06/30 07:00:05;;;;;;;17.85;9.02;;;;;;;;;;5034111;28;20075;-78
2023/06/30 07:02:31;;;;;;;21.98;11.27;;;;;;;;;;5032185;28;20079;-77
2023/06/30 07:04:57;;;;;;;16.65;9.80;;;;;;;;;;5033819;28;20033;-78
2023/06/30 07:07:22;;;;;;;18.85;11.32;;;;;;;;;;5032584;28;20080;-78
2023/06/30 07:09:48;;;;;;;18.30;9.98;;;;;;;;;;5032168;28;20037;-78
2023/06/30 07:12:13;;;;;;;16.58;9.95;;;;;;;;;;5032356;28;20067;-79
2023/06/30 07:14:39;;;;;;;19.55;9.52;;;;;;;;;;5033539;28;20053;-78
2023/06/30 07:17:05;;;;;;;16.52;10.52;;;;;;;;;;5033555;28;20017;-78
2023/06/30 07:19:30;;;;;;;16.95;10.02;;;;;;;;;;5033163;28;20040;-78
2023/06/30 07:21:56;;;;;;;20.58;10.60;;;;;;;;;;5032282;28;20033;-79
2023/06/30 07:24:21;;;;;;;22.40;10.98;;;;;;;;;;5033541;28;20683;-78
2023/06/30 07:26:47;;;;;;;18.50;10.75;;;;;;;;;;5033588;28;20104;-77
2023/06/30 07:29:13;;;;;;;17.35;10.82;;;;;;;;;;5031377;28;20392;-78
2023/06/30 07:31:38;;;;;;;18.83;11.27;;;;;;;;;;5031413;28;20029;-79
2023/06/30 07:34:04;;;;;;;18.92;11.48;;;;;;;;;;5031350;28;20472;-77
2023/06/30 07:36:30;;;;;;;21.55;11.65;;;;;;;;;;5031554;28;20084;-78
2023/06/30 07:38:55;;;;;;;18.70;10.63;;;;;;;;;;5031798;28;20081;-78
2023/06/30 07:41:21;;;;;;;22.75;12.27;;;;;;;;;;5032657;28;20061;-78
2023/06/30 07:43:46;;;;;;;21.33;13.18;;;;;;;;;;5031571;28;20041;-78
2023/06/30 07:46:12;;;;;;;19.85;11.65;;;;;;;;;;5031519;28;20049;-78
2023/06/30 07:48:37;;;;;;;18.98;10.52;;;;;;;;;;5032627;28;20511;-78
2023/06/30 07:51:03;;;;;;;19.38;11.38;;;;;;;;;;5032137;28;20029;-78
2023/06/30 07:53:28;;;;;;;19.00;11.45;;;;;;;;;;5032759;28;20382;-77
2023/06/30 07:55:54;;;;;;;21.67;11.30;;;;;;;;;;5032933;28;20044;-78
2023/06/30 07:58:19;;;;;;;20.35;10.85;;;;;;;;;;5031479;28;20069;-77
2023/06/30 08:00:45;;;;;;;17.65;10.65;;;;;;;;;;5032798;28;20033;-78
2023/06/30 08:03:11;;;;;;;18.40;11.68;;;;;;;;;;5031553;28;20033;-78
2023/06/30 08:05:36;;;;;;;18.38;10.70;;;;;;;;;;5032946;28;20033;-78
2023/06/30 08:08:02;;;;;;;17.98;10.85;;;;;;;;;;5031174;28;20035;-78
2023/06/30 08:10:28;;;;;;;17.55;10.98;;;;;;;;;;5032733;28;20080;-78
2023/06/30 08:12:53;;;;;;;14.88;10.20;;;;;;;;;;5031023;28;20120;-78
2023/06/30 08:15:19;;;;;;;22.90;11.88;;;;;;;;;;5032534;28;20033;-78
2023/06/30 08:17:45;;;;;;;16.50;11.27;;;;;;;;;;5033432;28;20041;-78
2023/06/30 08:20:10;;;;;;;14.80;9.98;;;;;;;;;;5031407;28;20477;-78
2023/06/30 08:22:36;;;;;;;17.55;11.05;;;;;;;;;;5031930;28;20037;-77
2023/06/30 08:25:01;;;;;;;18.02;10.57;;;;;;;;;;5015266;28;20080;-78
2023/06/30 08:27:29;;;;;;;18.52;11.63;;;;;;;;;;5031922;28;20033;-78
2023/06/30 08:29:54;;;;;;;17.23;10.82;;;;;;;;;;5033448;28;20275;-78
2023/06/30 08:32:21;;;;;;;16.73;10.73;;;;;;;;;;5031639;28;20048;-79
2023/06/30 08:34:46;;;;;;;21.48;10.63;;;;;;;;;;5032731;28;20100;-79
2023/06/30 08:37:12;;;;;;;17.45;10.23;;;;;;;;;;5014926;28;20112;-78
2023/06/30 08:39:39;;;;;;;19.52;10.25;;;;;;;;;;5031665;28;20064;-78
2023/06/30 08:42:05;;;;;;;18.67;11.00;;;;;;;;;;5032318;28;20036;-78
2023/06/30 08:44:31;;;;;;;15.05;9.68;;;;;;;;;;5014530;28;20496;-77
2023/06/30 08:46:57;;;;;;;16.80;9.70;;;;;;;;;;5031476;28;20033;-77
2023/06/30 08:49:24;;;;;;;16.17;10.32;;;;;;;;;;5031090;28;20029;-78
2023/06/30 08:51:56;;;;;;;21.15;10.45;;;;;;;;;;5032120;28;20068;-78
2023/06/30 08:54:28;;;;;;;22.13;10.73;;;;;;;;;;5031789;28;20026;-77
2023/06/30 08:56:54;;;;;;;18.15;10.13;;;;;;;;;;5033634;28;20496;-78
2023/06/30 08:59:20;;;;;;;18.00;10.40;;;;;;;;;;5035503;28;20033;-77
2023/06/30 09:01:45;;;;;;;17.38;12.07;;;;;;;;;;5039353;28;20040;-78
2023/06/30 09:04:11;;;;;;;18.90;11.68;;;;;;;;;;5035397;28;20041;-79
2023/06/30 09:06:40;;;;;;;21.85;11.68;;;;;;;;;;5036194;28;20422;-78
2023/06/30 09:09:09;;;;;;;18.50;10.88;;;;;;;;;;5036690;28;20060;-78
2023/06/30 09:11:36;;;;;;;21.42;11.48;;;;;;;;;;5034816;28;20425;-78
2023/06/30 09:14:03;;;;;;;17.90;10.73;;;;;;;;;;5035023;28;20062;-78
2023/06/30 09:16:30;;;;;;;23.40;12.85;;;;;;;;;;5034168;28;20569;-77
2023/06/30 09:18:56;;;;;;;20.70;13.25;;;;;;;;;;5033135;28;20032;-75
2023/06/30 09:21:21;;;;;;;23.35;13.40;;;;;;;;;;5030634;28;20033;-75
2023/06/30 09:23:47;;;;;;;19.92;11.10;;;;;;;;;;5032033;28;20457;-78
2023/06/30 09:26:14;;;;;;;17.45;11.27;;;;;;;;;;5014050;28;20040;-75
2023/06/30 09:28:43;;;;;;;22.23;11.02;;;;;;;;;;5030157;28;20025;-77
2023/06/30 09:31:08;;;;;;;19.20;11.55;;;;;;;;;;5031302;28;20029;-78
2023/06/30 09:33:35;;;;;;;21.15;12.18;;;;;;;;;;5032302;28;20419;-79
2023/06/30 09:36:02;;;;;;;18.88;11.68;;;;;;;;;;5035906;28;20021;-77
2023/06/30 09:38:28;;;;;;;19.05;12.88;;;;;;;;;;5035067;28;20550;-78
2023/06/30 09:40:53;;;;;;;20.02;12.98;;;;;;;;;;5035490;28;20036;-78
2023/06/30 09:43:22;;;;;;;25.92;12.85;;;;;;;;;;5018896;28;20026;-79
2023/06/30 09:45:59;;;;;;;17.45;12.73;;;;;;;;;;5035981;28;20038;-78
2023/06/30 09:48:34;;;;;;;24.58;15.18;;;;;;;;;;5034128;28;20025;-79
2023/06/30 09:51:00;;;;;;;20.92;13.20;;;;;;;;;;5033949;28;20156;-78
2023/06/30 09:53:34;;;;;;;23.55;13.48;;;;;;;;;;5034174;28;20101;-78
2023/06/30 09:56:00;;;;;;;25.08;14.30;;;;;;;;;;5034941;28;20040;-78
2023/06/30 09:58:25;;;;;;;22.08;14.38;;;;;;;;;;5034500;28;20033;-78
2023/06/30 10:00:51;;;;;;;25.90;14.70;;;;;;;;;;5033086;28;20466;-78
2023/06/30 10:03:18;;;;;;;27.27;14.98;;;;;;;;;;5035711;28;20034;-78
2023/06/30 10:05:44;;;;;;;29.50;17.70;;;;;;;;;;5036761;28;20025;-79
2023/06/30 10:08:11;;;;;;;24.92;15.95;;;;;;;;;;5034933;28;20025;-76
2023/06/30 10:10:37;;;;;;;22.10;14.48;;;;;;;;;;5034262;28;20044;-78
2023/06/30 10:13:03;;;;;;;24.13;15.73;;;;;;;;;;5034709;28;20465;-78
2023/06/30 10:15:29;;;;;;;26.40;16.17;;;;;;;;;;5016669;28;20030;-77
2023/06/30 10:17:57;;;;;;;24.40;15.18;;;;;;;;;;5034270;28;20105;-76
2023/06/30 10:20:22;;;;;;;28.33;16.27;;;;;;;;;;5033869;28;20539;-77
2023/06/30 10:22:48;;;;;;;31.90;19.15;;;;;;;;;;5032503;28;20104;-76
2023/06/30 10:25:16;;;;;;;39.83;20.58;;;;;;;;;;5033917;28;20128;-76
2023/06/30 10:27:41;;;;;;;26.50;16.30;;;;;;;;;;5032651;28;20564;-76
2023/06/30 10:30:07;;;;;;;25.58;16.42;;;;;;;;;;5032539;28;20115;-78
2023/06/30 10:32:33;;;;;;;27.95;16.73;;;;;;;;;;5033571;28;20117;-75
2023/06/30 10:34:59;;;;;;;26.88;17.00;;;;;;;;;;5033790;28;20026;-77
2023/06/30 10:37:25;;;;;;;26.40;15.70;;;;;;;;;;5033762;28;20500;-77
2023/06/30 10:39:51;;;;;;;25.27;16.10;;;;;;;;;;5016127;28;20534;-77
2023/06/30 10:42:18;;;;;;;26.60;15.73;;;;;;;;;;5032955;28;20026;-76
2023/06/30 10:44:44;;;;;;;27.65;16.98;;;;;;;;;;5015342;28;20555;-76
2023/06/30 10:47:10;;;;;;;28.85;16.98;;;;;;;;;;5032820;28;20048;-76
2023/06/30 10:49:37;;;;;;;26.38;17.45;;;;;;;;;;5032452;28;20457;-76
2023/06/30 10:52:03;;;;;;;27.15;16.83;;;;;;;;;;5031941;28;20099;-76
2023/06/30 10:54:30;;;;;;;29.92;16.52;;;;;;;;;;5033574;28;20032;-76
2023/06/30 10:57:15;;;;;;;29.70;17.13;;;;;;;;;;5033687;28;20021;-75
2023/06/30 10:59:42;;;;;;;29.10;16.52;;;;;;;;;;5033684;28;20042;-78
2023/06/30 11:02:14;;;;;;;29.30;17.20;;;;;;;;;;5031813;28;20076;-76
2023/06/30 11:04:40;;;;;;;35.28;19.00;;;;;;;;;;5032278;28;20489;-76
2023/06/30 11:07:07;;;;;;;31.80;18.55;;;;;;;;;;5032493;28;20496;-77
2023/06/30 11:09:48;;;;;;;33.40;18.20;;;;;;;;;;5031998;28;20036;-77
2023/06/30 11:12:16;;;;;;;31.38;17.90;;;;;;;;;;5033117;28;20022;-77
2023/06/30 11:14:42;;;;;;;;;;;;;;;;;;5033952;28;20500;-77
2023/06/30 11:17:07;;;;;;;30.65;18.13;;;;;;;;;;5032338;28;19908;-77
2023/06/30 11:19:36;;;;;;;28.17;17.40;;;;;;;;;;5031869;28;20072;-77
2023/06/30 11:22:20;;;;;;;29.33;18.92;;;;;;;;;;5031518;28;20083;-76
2023/06/30 11:24:46;;;;;;;34.58;19.23;;;;;;;;;;5015584;28;20130;-77
2023/06/30 11:27:11;;;;;;;32.92;19.55;;;;;;;;;;4999511;28;20122;-77
2023/06/30 11:29:38;;;;;;;31.58;18.25;;;;;;;;;;5033056;28;20022;-78
2023/06/30 11:32:03;;;;;;;27.92;18.15;;;;;;;;;;5031395;28;20116;-77
2023/06/30 11:34:29;;;;;;;32.00;18.02;;;;;;;;;;5032863;28;20121;-77
2023/06/30 11:37:03;;;;;;;29.13;17.48;;;;;;;;;;5032687;28;20037;-79
2023/06/30 11:39:29;;;;;;;31.98;17.70;;;;;;;;;;5032676;28;20030;-78
2023/06/30 11:41:54;;;;;;;27.95;16.95;;;;;;;;;;5033415;28;20083;-78
2023/06/30 11:44:20;;;;;;;28.98;16.73;;;;;;;;;;5035057;28;20488;-78
2023/06/30 11:46:46;;;;;;;29.02;17.60;;;;;;;;;;5036017;28;20033;-78
2023/06/30 11:49:12;;;;;;;31.92;17.33;;;;;;;;;;5040003;28;20030;-77
2023/06/30 11:51:38;;;;;;;29.77;17.15;;;;;;;;;;5043364;28;20033;-78
2023/06/30 11:54:06;;;;;;;26.70;15.80;;;;;;;;;;5038454;28;20032;-79
2023/06/30 11:56:33;;;;;;;29.02;16.17;;;;;;;;;;5035156;28;20504;-77
2023/06/30 11:58:58;;;;;;;29.45;16.70;;;;;;;;;;5033076;28;20457;-77
2023/06/30 12:01:49;;;;;;;25.05;15.73;;;;;;;;;;5032905;28;20029;-77
2023/06/30 12:04:15;;;;;;;27.48;15.65;;;;;;;;;;4986779;28;20058;-79
2023/06/30 12:06:44;;;;;;;22.80;13.57;;;;;;;;;;4973738;28;20030;-78
2023/06/30 12:09:09;;;;;;;23.00;13.95;;;;;;;;;;4988510;28;20035;-77
2023/06/30 12:11:35;;;;;;;19.88;12.13;;;;;;;;;;4972273;28;20081;-77
2023/06/30 12:14:10;;;;;;;17.48;10.85;;;;;;;;;;4973351;28;20482;-78
2023/06/30 12:16:43;;;;;;;21.05;12.82;;;;;;;;;;4955905;28;20441;-79
2023/06/30 12:19:08;;;;;;;17.65;11.00;;;;;;;;;;4972005;28;20022;-78
2023/06/30 12:21:35;;;;;;;16.25;9.52;;;;;;;;;;4973113;28;20037;-78
2023/06/30 12:24:01;;;;;;;16.25;9.48;;;;;;;;;;4973205;28;20394;-78
2023/06/30 12:26:27;;;;;;;21.13;10.27;;;;;;;;;;4956142;28;20092;-78
2023/06/30 12:28:52;;;;;;;15.23;9.32;;;;;;;;;;4971937;28;20106;-78
2023/06/30 12:31:24;;;;;;;15.57;10.45;;;;;;;;;;4971788;28;20027;-79
2023/06/30 12:33:56;;;;;;;18.83;10.98;;;;;;;;;;4972165;28;20494;-80
2023/06/30 12:36:27;;;;;;;18.88;10.38;;;;;;;;;;4940107;28;20473;-78
2023/06/30 12:38:52;;;;;;;13.00;8.85;;;;;;;;;;4972201;28;20138;-77
2023/06/30 12:41:19;;;;;;;13.70;9.00;;;;;;;;;;4955776;28;20150;-79
2023/06/30 12:43:45;;;;;;;15.52;8.38;;;;;;;;;;4971780;28;20037;-79
2023/06/30 12:46:10;;;;;;;15.48;9.02;;;;;;;;;;4955825;28;20034;-79
2023/06/30 12:48:36;;;;;;;16.05;8.90;;;;;;;;;;4971351;28;20222;-79
2023/06/30 12:51:02;;;;;;;15.63;9.65;;;;;;;;;;4971175;28;20039;-77
2023/06/30 12:53:27;;;;;;;14.95;9.15;;;;;;;;;;4971332;28;20039;-77
2023/06/30 12:55:53;;;;;;;16.48;8.77;;;;;;;;;;4971419;28;20031;-77
2023/06/30 12:58:19;;;;;;;14.23;8.75;;;;;;;;;;4955521;28;20128;-78
2023/06/30 13:00:45;;;;;;;14.07;8.38;;;;;;;;;;4971201;28;20038;-78
2023/06/30 13:03:13;;;;;;;12.68;8.00;;;;;;;;;;4955230;28;20038;-78
2023/06/30 13:05:38;;;;;;;13.05;8.15;;;;;;;;;;4972828;28;20114;-79
2023/06/30 13:08:07;;;;;;;15.10;8.07;;;;;;;;;;4971051;28;20109;-78
2023/06/30 13:10:33;;;;;;;13.05;8.02;;;;;;;;;;4958554;28;20062;-77
2023/06/30 13:12:59;;;;;;;13.68;7.30;;;;;;;;;;4959390;28;20026;-79
2023/06/30 13:15:24;;;;;;;10.00;5.65;;;;;;;;;;4975364;28;20027;-78
2023/06/30 13:17:50;;;;;;;9.38;5.45;;;;;;;;;;4975571;28;20026;-77
2023/06/30 13:20:16;;;;;;;9.32;6.03;;;;;;;;;;4959745;28;20383;-78
2023/06/30 13:22:41;;;;;;;10.43;6.15;;;;;;;;;;4975508;28;20089;-79
2023/06/30 13:25:08;;;;;;;11.00;6.47;;;;;;;;;;4960510;28;20035;-78
2023/06/30 13:27:33;;;;;;;11.82;7.35;;;;;;;;;;4976996;28;20062;-78
2023/06/30 13:29:59;;;;;;;13.85;7.43;;;;;;;;;;4977962;28;20027;-80
2023/06/30 13:32:24;;;;;;;15.30;8.25;;;;;;;;;;4977766;28;20387;-79
2023/06/30 13:34:51;;;;;;;13.88;8.40;;;;;;;;;;4965533;28;20585;-79
2023/06/30 13:37:17;;;;;;;14.25;8.00;;;;;;;;;;4999581;28;20027;-79
2023/06/30 13:39:45;;;;;;;11.70;7.55;;;;;;;;;;4980710;28;20038;-79
2023/06/30 13:42:11;;;;;;;16.63;8.65;;;;;;;;;;4961185;28;20046;-78
2023/06/30 13:44:37;;;;;;;14.13;8.13;;;;;;;;;;4962646;28;20027;-79
2023/06/30 13:47:03;;;;;;;12.85;8.80;;;;;;;;;;4994032;28;20034;-79
2023/06/30 13:49:29;;;;;;;16.88;10.57;;;;;;;;;;4960776;28;20118;-79
2023/06/30 13:51:55;;;;;;;17.13;10.02;;;;;;;;;;4993556;28;20402;-78
2023/06/30 13:54:24;;;;;;;20.42;9.73;;;;;;;;;;4978788;28;20452;-78
2023/06/30 13:56:50;;;;;;;17.45;10.82;;;;;;;;;;4977574;28;20039;-79
2023/06/30 13:59:16;;;;;;;18.40;11.35;;;;;;;;;;4977334;28;20402;-77
2023/06/30 14:01:41;;;;;;;19.15;11.52;;;;;;;;;;4959592;28;20045;-79
2023/06/30 14:04:07;;;;;;;19.10;11.13;;;;;;;;;;4976566;28;20440;-77
2023/06/30 14:06:33;;;;;;;18.92;11.68;;;;;;;;;;4959456;28;20031;-77
2023/06/30 14:08:59;;;;;;;21.00;12.88;;;;;;;;;;4975855;28;20150;-78
2023/06/30 14:11:25;;;;;;;23.25;12.45;;;;;;;;;;4957984;28;20035;-76
2023/06/30 14:17:44;;;;;;;14.98;8.75;;;;;;;;;;4976608;28;20443;-78
2023/06/30 14:20:12;;;;;;;13.85;8.80;;;;;;;;;;4973513;28;20039;-76
2023/06/30 14:22:44;;;;;;;13.27;8.15;;;;;;;;;;4976181;28;20394;-76
2023/06/30 14:25:21;;;;;;;14.82;6.95;;;;;;;;;;4961006;28;20035;-79